Nelson, New York
Current Conditions -  °F | °C
As of 9:54 AM on Monday 24 Nov 2014 (Local Time) from KSYR Reporting Station
Scattered Clouds Scattered Clouds  
Wind Chill: 67°   Ceiling: Unl
Heat Index: 67°   Visibility: 10mi
Dew Point: 54°   Wind: 15mph
Humidity: 63%   Direction: 200°SSW
Pressure: 29.43"   Gusts: 35mph
Location:  42.9403°N, 75.8232°W
Report Text: KSYR 241454Z 20013G30KT 10SM SCT050 19/12 A2943 RMK AO2 PK WND 21030/1449 SLP963 T01940122 53000
Loading
Personal Weather Stations






























Interactive Weather Map New forecast layout! Learn more

10-Day Weather Forecast

Advertisements
Track Severe Weather on mobile